sensor_id;sensor_type;location;lat;lon;timestamp;temperature;humidity
29093;DHT22;16167;48.768;14.984;2023-08-01T00:01:25;15.60;1.00
29093;DHT22;16167;48.768;14.984;2023-08-01T00:03:53;15.60;1.00
29093;DHT22;16167;48.768;14.984;2023-08-01T00:06:21;15.60;1.00
29093;DHT22;16167;48.768;14.984;2023-08-01T00:08:51;15.60;1.00
29093;DHT22;16167;48.768;14.984;2023-08-01T00:11:19;15.50;1.00
29093;DHT22;16167;48.768;14.984;2023-08-01T00:13:46;15.50;1.00
29093;DHT22;16167;48.768;14.984;2023-08-01T00:16:16;15.50;1.00
29093;DHT22;16167;48.768;14.984;2023-08-01T00:18:44;15.40;1.00
29093;DHT22;16167;48.768;14.984;2023-08-01T00:21:11;15.40;1.00
29093;DHT22;16167;48.768;14.984;2023-08-01T00:23:39;15.50;1.00
29093;DHT22;16167;48.768;14.984;2023-08-01T00:26:07;15.50;1.00
29093;DHT22;16167;48.768;14.984;2023-08-01T00:28:35;15.50;1.00
29093;DHT22;16167;48.768;14.984;2023-08-01T00:31:04;15.50;1.00
29093;DHT22;16167;48.768;14.984;2023-08-01T00:33:33;15.50;1.00
29093;DHT22;16167;48.768;14.984;2023-08-01T00:36:01;15.60;1.00
29093;DHT22;16167;48.768;14.984;2023-08-01T00:38:30;15.60;1.00
29093;DHT22;16167;48.768;14.984;2023-08-01T00:40:57;15.60;1.00
29093;DHT22;16167;48.768;14.984;2023-08-01T00:43:25;15.70;1.00
29093;DHT22;16167;48.768;14.984;2023-08-01T00:45:53;15.70;1.00
29093;DHT22;16167;48.768;14.984;2023-08-01T00:48:23;15.70;1.00
29093;DHT22;16167;48.768;14.984;2023-08-01T00:50:52;15.70;1.00
29093;DHT22;16167;48.768;14.984;2023-08-01T00:53:22;15.70;1.00
29093;DHT22;16167;48.768;14.984;2023-08-01T00:55:51;15.70;1.00
29093;DHT22;16167;48.768;14.984;2023-08-01T00:58:19;15.80;1.00
29093;DHT22;16167;48.768;14.984;2023-08-01T01:00:47;15.70;1.00
29093;DHT22;16167;48.768;14.984;2023-08-01T01:03:15;15.70;1.00
29093;DHT22;16167;48.768;14.984;2023-08-01T01:05:46;15.80;1.00
29093;DHT22;16167;48.768;14.984;2023-08-01T01:08:17;15.80;1.00
29093;DHT22;16167;48.768;14.984;2023-08-01T01:10:45;15.80;1.00
29093;DHT22;16167;48.768;14.984;2023-08-01T01:13:13;15.90;1.00
29093;DHT22;16167;48.768;14.984;2023-08-01T01:15:41;15.90;1.00
29093;DHT22;16167;48.768;14.984;2023-08-01T01:18:09;15.80;1.00
29093;DHT22;16167;48.768;14.984;2023-08-01T01:20:39;15.90;1.00
29093;DHT22;16167;48.768;14.984;2023-08-01T01:23:07;15.90;1.00
29093;DHT22;16167;48.768;14.984;2023-08-01T01:25:36;15.90;1.00
29093;DHT22;16167;48.768;14.984;2023-08-01T01:28:05;15.90;1.00
29093;DHT22;16167;48.768;14.984;2023-08-01T01:30:34;15.90;1.00
29093;DHT22;16167;48.768;14.984;2023-08-01T01:33:03;15.90;1.00
29093;DHT22;16167;48.768;14.984;2023-08-01T01:35:33;15.90;1.00
29093;DHT22;16167;48.768;14.984;2023-08-01T01:38:02;15.90;1.00
29093;DHT22;16167;48.768;14.984;2023-08-01T01:40:31;15.90;1.00
29093;DHT22;16167;48.768;14.984;2023-08-01T01:42:59;16.00;1.00
29093;DHT22;16167;48.768;14.984;2023-08-01T01:45:27;15.90;1.00
29093;DHT22;16167;48.768;14.984;2023-08-01T01:47:55;15.90;1.00
29093;DHT22;16167;48.768;14.984;2023-08-01T01:50:23;16.00;1.00
29093;DHT22;16167;48.768;14.984;2023-08-01T01:52:51;16.00;1.00
29093;DHT22;16167;48.768;14.984;2023-08-01T01:55:21;16.00;1.00
29093;DHT22;16167;48.768;14.984;2023-08-01T01:57:48;16.00;1.00
29093;DHT22;16167;48.768;14.984;2023-08-01T02:00:16;16.00;1.00
29093;DHT22;16167;48.768;14.984;2023-08-01T02:02:44;16.00;1.00
29093;DHT22;16167;48.768;14.984;2023-08-01T02:05:12;16.00;1.00
29093;DHT22;16167;48.768;14.984;2023-08-01T02:07:40;16.00;1.00
29093;DHT22;16167;48.768;14.984;2023-08-01T02:10:09;16.00;1.00
29093;DHT22;16167;48.768;14.984;2023-08-01T02:12:38;16.00;1.00
29093;DHT22;16167;48.768;14.984;2023-08-01T02:15:06;16.00;1.00
29093;DHT22;16167;48.768;14.984;2023-08-01T02:17:34;16.00;1.00
29093;DHT22;16167;48.768;14.984;2023-08-01T02:20:03;16.00;1.00
29093;DHT22;16167;48.768;14.984;2023-08-01T02:22:31;15.90;1.00
29093;DHT22;16167;48.768;14.984;2023-08-01T02:24:59;15.90;1.00
29093;DHT22;16167;48.768;14.984;2023-08-01T02:27:27;15.90;1.00
29093;DHT22;16167;48.768;14.984;2023-08-01T02:29:56;15.90;1.00
29093;DHT22;16167;48.768;14.984;2023-08-01T02:32:24;15.90;1.00
29093;DHT22;16167;48.768;14.984;2023-08-01T02:34:53;15.90;1.00
29093;DHT22;16167;48.768;14.984;2023-08-01T02:37:21;15.90;1.00
29093;DHT22;16167;48.768;14.984;2023-08-01T02:39:49;15.90;1.00
29093;DHT22;16167;48.768;14.984;2023-08-01T02:42:17;15.90;1.00
29093;DHT22;16167;48.768;14.984;2023-08-01T02:44:45;15.90;1.00
29093;DHT22;16167;48.768;14.984;2023-08-01T02:47:14;15.90;1.00
29093;DHT22;16167;48.768;14.984;2023-08-01T02:49:42;15.90;1.00
29093;DHT22;16167;48.768;14.984;2023-08-01T02:52:10;15.90;1.00
29093;DHT22;16167;48.768;14.984;2023-08-01T02:54:38;15.90;1.00
29093;DHT22;16167;48.768;14.984;2023-08-01T02:57:06;15.90;1.00
29093;DHT22;16167;48.768;14.984;2023-08-01T02:59:34;15.90;5.10
29093;DHT22;16167;48.768;14.984;2023-08-01T03:02:02;15.80;7.80
29093;DHT22;16167;48.768;14.984;2023-08-01T03:04:31;15.90;6.10
29093;DHT22;16167;48.768;14.984;2023-08-01T03:07:11;15.80;2.30
29093;DHT22;16167;48.768;14.984;2023-08-01T03:09:39;15.80;1.00
29093;DHT22;16167;48.768;14.984;2023-08-01T03:12:10;15.90;1.00
29093;DHT22;16167;48.768;14.984;2023-08-01T03:14:38;15.90;1.00
29093;DHT22;16167;48.768;14.984;2023-08-01T03:17:08;15.90;1.00
29093;DHT22;16167;48.768;14.984;2023-08-01T03:19:37;15.90;1.00
29093;DHT22;16167;48.768;14.984;2023-08-01T03:22:05;15.90;1.00
29093;DHT22;16167;48.768;14.984;2023-08-01T03:24:34;15.90;1.00
29093;DHT22;16167;48.768;14.984;2023-08-01T03:27:02;15.90;1.40
29093;DHT22;16167;48.768;14.984;2023-08-01T03:29:30;15.90;1.00
29093;DHT22;16167;48.768;14.984;2023-08-01T03:31:58;15.90;1.00
29093;DHT22;16167;48.768;14.984;2023-08-01T03:34:26;15.80;1.00
29093;DHT22;16167;48.768;14.984;2023-08-01T03:36:56;15.90;1.00
29093;DHT22;16167;48.768;14.984;2023-08-01T03:39:24;15.90;1.00
29093;DHT22;16167;48.768;14.984;2023-08-01T03:41:52;15.90;1.00
29093;DHT22;16167;48.768;14.984;2023-08-01T03:44:20;15.90;1.00
29093;DHT22;16167;48.768;14.984;2023-08-01T03:46:48;16.00;1.00
29093;DHT22;16167;48.768;14.984;2023-08-01T03:49:16;16.00;1.00
29093;DHT22;16167;48.768;14.984;2023-08-01T03:51:45;15.90;1.00
29093;DHT22;16167;48.768;14.984;2023-08-01T03:54:14;15.90;1.00
29093;DHT22;16167;48.768;14.984;2023-08-01T03:56:42;16.00;1.00
29093;DHT22;16167;48.768;14.984;2023-08-01T03:59:11;16.00;1.00
29093;DHT22;16167;48.768;14.984;2023-08-01T04:01:39;16.00;1.00
29093;DHT22;16167;48.768;14.984;2023-08-01T04:04:07;16.00;1.00
29093;DHT22;16167;48.768;14.984;2023-08-01T04:06:35;16.10;1.00
29093;DHT22;16167;48.768;14.984;2023-08-01T04:09:04;16.00;1.00
29093;DHT22;16167;48.768;14.984;2023-08-01T04:11:34;16.10;1.00
29093;DHT22;16167;48.768;14.984;2023-08-01T04:14:02;16.00;1.00
29093;DHT22;16167;48.768;14.984;2023-08-01T04:16:30;16.00;1.00
29093;DHT22;16167;48.768;14.984;2023-08-01T04:18:58;16.00;1.00
29093;DHT22;16167;48.768;14.984;2023-08-01T04:21:26;16.00;9.90
29093;DHT22;16167;48.768;14.984;2023-08-01T04:23:54;16.00;13.30
29093;DHT22;16167;48.768;14.984;2023-08-01T04:26:22;16.00;10.00
29093;DHT22;16167;48.768;14.984;2023-08-01T04:28:51;16.00;21.90
29093;DHT22;16167;48.768;14.984;2023-08-01T04:31:19;16.00;11.60
29093;DHT22;16167;48.768;14.984;2023-08-01T04:33:47;16.00;8.30
29093;DHT22;16167;48.768;14.984;2023-08-01T04:36:15;16.00;4.80
29093;DHT22;16167;48.768;14.984;2023-08-01T04:38:43;16.10;14.90
29093;DHT22;16167;48.768;14.984;2023-08-01T04:41:11;16.10;13.90
29093;DHT22;16167;48.768;14.984;2023-08-01T04:43:39;16.10;9.40
29093;DHT22;16167;48.768;14.984;2023-08-01T04:46:08;16.10;1.00
29093;DHT22;16167;48.768;14.984;2023-08-01T04:48:40;16.10;8.30
29093;DHT22;16167;48.768;14.984;2023-08-01T04:51:08;16.20;7.00
29093;DHT22;16167;48.768;14.984;2023-08-01T04:53:36;16.20;7.40
29093;DHT22;16167;48.768;14.984;2023-08-01T04:56:04;16.20;6.80
29093;DHT22;16167;48.768;14.984;2023-08-01T04:58:32;16.20;1.90
29093;DHT22;16167;48.768;14.984;2023-08-01T05:01:00;16.20;2.70
29093;DHT22;16167;48.768;14.984;2023-08-01T05:03:30;16.20;3.20
29093;DHT22;16167;48.768;14.984;2023-08-01T05:05:58;16.20;8.30
29093;DHT22;16167;48.768;14.984;2023-08-01T05:08:26;16.20;8.30
29093;DHT22;16167;48.768;14.984;2023-08-01T05:10:54;16.20;13.50
29093;DHT22;16167;48.768;14.984;2023-08-01T05:13:22;16.20;15.60
29093;DHT22;16167;48.768;14.984;2023-08-01T05:15:50;16.20;18.10
29093;DHT22;16167;48.768;14.984;2023-08-01T05:18:18;16.20;24.60
29093;DHT22;16167;48.768;14.984;2023-08-01T05:20:47;16.30;24.80
29093;DHT22;16167;48.768;14.984;2023-08-01T05:23:15;16.20;16.60
29093;DHT22;16167;48.768;14.984;2023-08-01T05:25:43;16.20;2.60
29093;DHT22;16167;48.768;14.984;2023-08-01T05:28:11;16.20;8.20
29093;DHT22;16167;48.768;14.984;2023-08-01T05:30:39;16.20;3.90
29093;DHT22;16167;48.768;14.984;2023-08-01T05:33:08;16.30;25.60
29093;DHT22;16167;48.768;14.984;2023-08-01T05:35:36;16.20;18.40
29093;DHT22;16167;48.768;14.984;2023-08-01T05:38:05;16.20;28.40
29093;DHT22;16167;48.768;14.984;2023-08-01T05:40:33;16.20;31.70
29093;DHT22;16167;48.768;14.984;2023-08-01T05:43:01;16.20;22.40
29093;DHT22;16167;48.768;14.984;2023-08-01T05:45:30;16.20;27.60
29093;DHT22;16167;48.768;14.984;2023-08-01T05:47:58;16.20;20.60
29093;DHT22;16167;48.768;14.984;2023-08-01T05:50:26;16.20;23.70
29093;DHT22;16167;48.768;14.984;2023-08-01T05:52:54;16.20;31.60
29093;DHT22;16167;48.768;14.984;2023-08-01T05:55:24;16.20;19.00
29093;DHT22;16167;48.768;14.984;2023-08-01T05:57:52;16.30;14.90
29093;DHT22;16167;48.768;14.984;2023-08-01T06:00:20;16.30;25.20
29093;DHT22;16167;48.768;14.984;2023-08-01T06:02:48;16.30;35.90
29093;DHT22;16167;48.768;14.984;2023-08-01T06:05:16;16.30;15.40
29093;DHT22;16167;48.768;14.984;2023-08-01T06:07:44;16.40;19.10
29093;DHT22;16167;48.768;14.984;2023-08-01T06:10:12;16.40;25.60
29093;DHT22;16167;48.768;14.984;2023-08-01T06:12:42;16.40;30.20
29093;DHT22;16167;48.768;14.984;2023-08-01T06:15:10;16.40;23.90
29093;DHT22;16167;48.768;14.984;2023-08-01T06:17:38;16.40;22.20
29093;DHT22;16167;48.768;14.984;2023-08-01T06:20:06;16.40;17.80
29093;DHT22;16167;48.768;14.984;2023-08-01T06:22:35;16.40;15.80
29093;DHT22;16167;48.768;14.984;2023-08-01T06:25:03;16.50;22.10
29093;DHT22;16167;48.768;14.984;2023-08-01T06:27:31;16.50;14.40
29093;DHT22;16167;48.768;14.984;2023-08-01T06:30:00;16.60;11.10
29093;DHT22;16167;48.768;14.984;2023-08-01T06:32:28;16.70;10.60
29093;DHT22;16167;48.768;14.984;2023-08-01T06:34:56;16.80;1.60
29093;DHT22;16167;48.768;14.984;2023-08-01T06:37:24;16.80;1.00
29093;DHT22;16167;48.768;14.984;2023-08-01T06:39:53;17.00;1.00
29093;DHT22;16167;48.768;14.984;2023-08-01T06:42:22;17.20;1.00
29093;DHT22;16167;48.768;14.984;2023-08-01T06:44:49;17.30;1.00
29093;DHT22;16167;48.768;14.984;2023-08-01T06:47:19;17.40;1.00
29093;DHT22;16167;48.768;14.984;2023-08-01T06:49:47;17.50;1.00
29093;DHT22;16167;48.768;14.984;2023-08-01T06:52:15;17.50;1.00
29093;DHT22;16167;48.768;14.984;2023-08-01T06:54:43;17.60;1.00
29093;DHT22;16167;48.768;14.984;2023-08-01T06:57:11;17.60;1.00
29093;DHT22;16167;48.768;14.984;2023-08-01T06:59:39;17.70;1.00
29093;DHT22;16167;48.768;14.984;2023-08-01T07:02:06;17.70;1.00
29093;DHT22;16167;48.768;14.984;2023-08-01T07:04:36;17.70;1.00
29093;DHT22;16167;48.768;14.984;2023-08-01T07:07:05;17.70;1.00
29093;DHT22;16167;48.768;14.984;2023-08-01T07:09:35;17.70;1.00
29093;DHT22;16167;48.768;14.984;2023-08-01T07:12:03;17.70;1.00
29093;DHT22;16167;48.768;14.984;2023-08-01T07:14:31;17.70;1.00
29093;DHT22;16167;48.768;14.984;2023-08-01T07:16:59;17.70;1.00
29093;DHT22;16167;48.768;14.984;2023-08-01T07:19:27;17.80;1.00
29093;DHT22;16167;48.768;14.984;2023-08-01T07:21:57;17.80;1.00
29093;DHT22;16167;48.768;14.984;2023-08-01T07:24:25;17.80;1.00
29093;DHT22;16167;48.768;14.984;2023-08-01T07:26:55;17.80;1.00
29093;DHT22;16167;48.768;14.984;2023-08-01T07:29:23;17.80;1.00
29093;DHT22;16167;48.768;14.984;2023-08-01T07:31:51;17.80;1.00
29093;DHT22;16167;48.768;14.984;2023-08-01T07:34:19;17.90;1.00
29093;DHT22;16167;48.768;14.984;2023-08-01T07:36:47;17.90;1.00
29093;DHT22;16167;48.768;14.984;2023-08-01T07:39:17;17.90;1.00
29093;DHT22;16167;48.768;14.984;2023-08-01T07:41:45;17.90;1.00
29093;DHT22;16167;48.768;14.984;2023-08-01T07:44:13;17.90;1.00
29093;DHT22;16167;48.768;14.984;2023-08-01T07:46:41;17.90;1.00
29093;DHT22;16167;48.768;14.984;2023-08-01T07:49:09;17.90;1.00
29093;DHT22;16167;48.768;14.984;2023-08-01T07:51:37;18.00;1.00
29093;DHT22;16167;48.768;14.984;2023-08-01T07:54:05;18.00;1.00
29093;DHT22;16167;48.768;14.984;2023-08-01T07:56:34;18.10;1.00
29093;DHT22;16167;48.768;14.984;2023-08-01T07:59:02;18.10;1.00
29093;DHT22;16167;48.768;14.984;2023-08-01T08:01:30;18.00;1.00
29093;DHT22;16167;48.768;14.984;2023-08-01T08:03:58;18.00;1.00
29093;DHT22;16167;48.768;14.984;2023-08-01T08:06:29;18.10;1.00
29093;DHT22;16167;48.768;14.984;2023-08-01T08:08:57;18.10;1.00
29093;DHT22;16167;48.768;14.984;2023-08-01T08:11:25;18.10;1.00
29093;DHT22;16167;48.768;14.984;2023-08-01T08:13:55;18.10;1.00
29093;DHT22;16167;48.768;14.984;2023-08-01T08:16:23;18.10;1.00
29093;DHT22;16167;48.768;14.984;2023-08-01T08:18:51;18.10;1.00
29093;DHT22;16167;48.768;14.984;2023-08-01T08:21:19;18.10;1.00
29093;DHT22;16167;48.768;14.984;2023-08-01T08:23:47;18.10;1.00
29093;DHT22;16167;48.768;14.984;2023-08-01T08:26:15;18.10;1.00
29093;DHT22;16167;48.768;14.984;2023-08-01T08:28:43;18.00;1.00
29093;DHT22;16167;48.768;14.984;2023-08-01T08:31:12;18.10;1.00
29093;DHT22;16167;48.768;14.984;2023-08-01T08:33:40;18.00;1.00
29093;DHT22;16167;48.768;14.984;2023-08-01T08:36:08;18.10;1.00
29093;DHT22;16167;48.768;14.984;2023-08-01T08:38:36;18.10;1.00
29093;DHT22;16167;48.768;14.984;2023-08-01T08:41:08;18.10;1.00
29093;DHT22;16167;48.768;14.984;2023-08-01T08:43:37;18.10;1.00
29093;DHT22;16167;48.768;14.984;2023-08-01T08:46:05;18.10;1.00
29093;DHT22;16167;48.768;14.984;2023-08-01T08:48:34;18.10;1.00
29093;DHT22;16167;48.768;14.984;2023-08-01T08:51:03;18.00;1.00
29093;DHT22;16167;48.768;14.984;2023-08-01T08:53:31;18.00;1.00
29093;DHT22;16167;48.768;14.984;2023-08-01T08:56:00;18.00;1.00
29093;DHT22;16167;48.768;14.984;2023-08-01T08:58:29;17.90;1.00
29093;DHT22;16167;48.768;14.984;2023-08-01T09:00:57;17.90;1.00
29093;DHT22;16167;48.768;14.984;2023-08-01T09:03:26;17.80;1.00
29093;DHT22;16167;48.768;14.984;2023-08-01T09:05:58;17.90;1.00
29093;DHT22;16167;48.768;14.984;2023-08-01T09:08:28;17.80;1.00
29093;DHT22;16167;48.768;14.984;2023-08-01T09:10:57;17.80;1.00
29093;DHT22;16167;48.768;14.984;2023-08-01T09:13:25;17.80;1.00
29093;DHT22;16167;48.768;14.984;2023-08-01T09:15:53;17.70;1.00
29093;DHT22;16167;48.768;14.984;2023-08-01T09:18:22;17.80;1.00
29093;DHT22;16167;48.768;14.984;2023-08-01T09:20:50;17.80;1.00
29093;DHT22;16167;48.768;14.984;2023-08-01T09:23:19;17.70;1.00
29093;DHT22;16167;48.768;14.984;2023-08-01T09:25:47;17.70;1.00
29093;DHT22;16167;48.768;14.984;2023-08-01T09:28:16;17.70;1.00
29093;DHT22;16167;48.768;14.984;2023-08-01T09:30:48;17.80;1.00
29093;DHT22;16167;48.768;14.984;2023-08-01T09:33:16;17.70;1.00
29093;DHT22;16167;48.768;14.984;2023-08-01T09:35:44;17.70;1.00
29093;DHT22;16167;48.768;14.984;2023-08-01T09:38:13;17.80;1.00
29093;DHT22;16167;48.768;14.984;2023-08-01T09:40:44;17.80;1.00
29093;DHT22;16167;48.768;14.984;2023-08-01T09:43:12;17.90;1.00
29093;DHT22;16167;48.768;14.984;2023-08-01T09:45:49;17.90;1.00
29093;DHT22;16167;48.768;14.984;2023-08-01T09:48:24;18.00;1.00
29093;DHT22;16167;48.768;14.984;2023-08-01T09:51:03;18.00;1.00
29093;DHT22;16167;48.768;14.984;2023-08-01T09:53:32;18.00;1.00
29093;DHT22;16167;48.768;14.984;2023-08-01T09:56:01;18.00;1.00
29093;DHT22;16167;48.768;14.984;2023-08-01T09:58:31;18.10;1.00
29093;DHT22;16167;48.768;14.984;2023-08-01T10:00:59;18.10;1.00
29093;DHT22;16167;48.768;14.984;2023-08-01T10:03:28;18.20;1.00
29093;DHT22;16167;48.768;14.984;2023-08-01T10:05:56;18.20;1.00
29093;DHT22;16167;48.768;14.984;2023-08-01T10:08:25;18.20;1.00
29093;DHT22;16167;48.768;14.984;2023-08-01T10:10:55;18.30;1.00
29093;DHT22;16167;48.768;14.984;2023-08-01T10:13:25;18.40;1.00
29093;DHT22;16167;48.768;14.984;2023-08-01T10:15:54;18.50;1.00
29093;DHT22;16167;48.768;14.984;2023-08-01T10:18:22;18.60;1.00
29093;DHT22;16167;48.768;14.984;2023-08-01T10:20:51;18.70;1.00
29093;DHT22;16167;48.768;14.984;2023-08-01T10:23:19;18.80;1.00
29093;DHT22;16167;48.768;14.984;2023-08-01T10:25:47;19.00;1.00
29093;DHT22;16167;48.768;14.984;2023-08-01T10:28:15;19.10;1.00
29093;DHT22;16167;48.768;14.984;2023-08-01T10:30:44;19.30;1.00
29093;DHT22;16167;48.768;14.984;2023-08-01T10:33:12;19.30;1.00
29093;DHT22;16167;48.768;14.984;2023-08-01T10:35:40;19.40;1.00
29093;DHT22;16167;48.768;14.984;2023-08-01T10:38:09;19.50;1.00
29093;DHT22;16167;48.768;14.984;2023-08-01T10:40:38;19.70;1.00
29093;DHT22;16167;48.768;14.984;2023-08-01T10:43:06;19.70;1.00
29093;DHT22;16167;48.768;14.984;2023-08-01T10:45:34;19.80;1.00
29093;DHT22;16167;48.768;14.984;2023-08-01T10:48:07;19.90;1.00
29093;DHT22;16167;48.768;14.984;2023-08-01T10:50:35;19.90;1.00
29093;DHT22;16167;48.768;14.984;2023-08-01T10:53:04;19.80;1.00
29093;DHT22;16167;48.768;14.984;2023-08-01T10:55:39;19.80;1.00
29093;DHT22;16167;48.768;14.984;2023-08-01T10:58:07;19.80;1.00
29093;DHT22;16167;48.768;14.984;2023-08-01T11:00:35;19.70;1.00
29093;DHT22;16167;48.768;14.984;2023-08-01T11:03:03;19.70;1.00
29093;DHT22;16167;48.768;14.984;2023-08-01T11:05:33;19.60;1.00
29093;DHT22;16167;48.768;14.984;2023-08-01T11:08:02;19.60;1.00
29093;DHT22;16167;48.768;14.984;2023-08-01T11:10:30;19.50;1.00
29093;DHT22;16167;48.768;14.984;2023-08-01T11:12:59;19.50;1.00
29093;DHT22;16167;48.768;14.984;2023-08-01T11:15:29;19.50;1.00
29093;DHT22;16167;48.768;14.984;2023-08-01T11:17:57;19.50;1.00
29093;DHT22;16167;48.768;14.984;2023-08-01T11:20:25;19.40;1.00
29093;DHT22;16167;48.768;14.984;2023-08-01T11:22:57;19.40;1.00
29093;DHT22;16167;48.768;14.984;2023-08-01T11:25:31;19.40;1.00
29093;DHT22;16167;48.768;14.984;2023-08-01T11:28:01;19.40;1.00
29093;DHT22;16167;48.768;14.984;2023-08-01T11:30:32;19.50;1.00
29093;DHT22;16167;48.768;14.984;2023-08-01T11:33:00;19.50;1.00
29093;DHT22;16167;48.768;14.984;2023-08-01T11:35:29;19.50;1.00
29093;DHT22;16167;48.768;14.984;2023-08-01T11:37:59;19.50;1.00
29093;DHT22;16167;48.768;14.984;2023-08-01T11:40:28;19.50;1.00
29093;DHT22;16167;48.768;14.984;2023-08-01T11:42:57;19.50;1.00
29093;DHT22;16167;48.768;14.984;2023-08-01T11:45:25;19.50;1.00
29093;DHT22;16167;48.768;14.984;2023-08-01T11:47:54;19.50;1.00
29093;DHT22;16167;48.768;14.984;2023-08-01T11:50:22;19.50;1.00
29093;DHT22;16167;48.768;14.984;2023-08-01T11:52:50;19.60;1.00
29093;DHT22;16167;48.768;14.984;2023-08-01T11:55:24;19.60;1.00
29093;DHT22;16167;48.768;14.984;2023-08-01T11:57:56;19.70;1.00
29093;DHT22;16167;48.768;14.984;2023-08-01T12:00:25;19.80;1.00
29093;DHT22;16167;48.768;14.984;2023-08-01T12:03:03;19.90;1.00
29093;DHT22;16167;48.768;14.984;2023-08-01T12:05:32;20.00;1.00
29093;DHT22;16167;48.768;14.984;2023-08-01T12:08:10;20.00;1.00
29093;DHT22;16167;48.768;14.984;2023-08-01T12:10:40;20.00;1.00
29093;DHT22;16167;48.768;14.984;2023-08-01T12:13:18;20.00;1.00
29093;DHT22;16167;48.768;14.984;2023-08-01T12:15:47;20.00;1.00
29093;DHT22;16167;48.768;14.984;2023-08-01T12:18:21;19.90;1.00
29093;DHT22;16167;48.768;14.984;2023-08-01T12:21:10;19.80;1.00
29093;DHT22;16167;48.768;14.984;2023-08-01T12:23:39;19.70;1.00
29093;DHT22;16167;48.768;14.984;2023-08-01T12:26:08;19.60;1.00
29093;DHT22;16167;48.768;14.984;2023-08-01T12:28:36;19.50;1.00
29093;DHT22;16167;48.768;14.984;2023-08-01T12:31:04;19.40;1.00
29093;DHT22;16167;48.768;14.984;2023-08-01T12:33:32;19.20;1.00
29093;DHT22;16167;48.768;14.984;2023-08-01T12:36:01;19.20;1.00
29093;DHT22;16167;48.768;14.984;2023-08-01T12:38:30;19.10;1.00
29093;DHT22;16167;48.768;14.984;2023-08-01T12:40:57;19.10;1.00
29093;DHT22;16167;48.768;14.984;2023-08-01T12:43:27;19.00;1.00
29093;DHT22;16167;48.768;14.984;2023-08-01T12:45:55;18.90;1.00
29093;DHT22;16167;48.768;14.984;2023-08-01T12:48:24;18.90;1.00
29093;DHT22;16167;48.768;14.984;2023-08-01T12:50:52;18.70;1.00
29093;DHT22;16167;48.768;14.984;2023-08-01T12:53:20;18.70;1.00
29093;DHT22;16167;48.768;14.984;2023-08-01T12:55:50;18.70;1.00
29093;DHT22;16167;48.768;14.984;2023-08-01T12:58:18;18.50;1.00
29093;DHT22;16167;48.768;14.984;2023-08-01T13:00:47;18.50;1.00
29093;DHT22;16167;48.768;14.984;2023-08-01T13:03:15;18.40;1.00
29093;DHT22;16167;48.768;14.984;2023-08-01T13:05:43;18.50;1.00
29093;DHT22;16167;48.768;14.984;2023-08-01T13:08:11;18.40;1.00
29093;DHT22;16167;48.768;14.984;2023-08-01T13:10:39;18.40;1.00
29093;DHT22;16167;48.768;14.984;2023-08-01T13:13:07;18.40;1.00
29093;DHT22;16167;48.768;14.984;2023-08-01T13:15:35;18.40;1.00
29093;DHT22;16167;48.768;14.984;2023-08-01T13:18:05;18.30;1.00
29093;DHT22;16167;48.768;14.984;2023-08-01T13:20:33;18.30;1.00
29093;DHT22;16167;48.768;14.984;2023-08-01T13:23:02;18.30;1.00
29093;DHT22;16167;48.768;14.984;2023-08-01T13:25:30;18.30;1.00
29093;DHT22;16167;48.768;14.984;2023-08-01T13:27:58;18.20;1.00
29093;DHT22;16167;48.768;14.984;2023-08-01T13:30:26;18.20;3.70
29093;DHT22;16167;48.768;14.984;2023-08-01T13:32:54;18.20;4.20
29093;DHT22;16167;48.768;14.984;2023-08-01T13:35:24;18.10;1.00
29093;DHT22;16167;48.768;14.984;2023-08-01T13:37:52;18.10;1.00
29093;DHT22;16167;48.768;14.984;2023-08-01T13:40:20;18.10;1.00
29093;DHT22;16167;48.768;14.984;2023-08-01T13:42:48;18.00;15.70
29093;DHT22;16167;48.768;14.984;2023-08-01T13:45:16;18.00;1.80
29093;DHT22;16167;48.768;14.984;2023-08-01T13:47:44;18.00;5.60
29093;DHT22;16167;48.768;14.984;2023-08-01T13:50:12;18.00;10.50
29093;DHT22;16167;48.768;14.984;2023-08-01T13:52:41;18.00;13.90
29093;DHT22;16167;48.768;14.984;2023-08-01T13:55:10;18.00;1.00
29093;DHT22;16167;48.768;14.984;2023-08-01T13:57:38;18.10;1.00
29093;DHT22;16167;48.768;14.984;2023-08-01T14:00:06;18.00;2.30
29093;DHT22;16167;48.768;14.984;2023-08-01T14:02:43;18.00;4.30
29093;DHT22;16167;48.768;14.984;2023-08-01T14:05:11;18.00;3.90
29093;DHT22;16167;48.768;14.984;2023-08-01T14:07:39;17.90;5.50
29093;DHT22;16167;48.768;14.984;2023-08-01T14:10:11;17.90;9.10
29093;DHT22;16167;48.768;14.984;2023-08-01T14:12:41;17.90;6.40
29093;DHT22;16167;48.768;14.984;2023-08-01T14:15:09;17.80;14.40
29093;DHT22;16167;48.768;14.984;2023-08-01T14:17:38;17.70;13.80
29093;DHT22;16167;48.768;14.984;2023-08-01T14:20:07;17.70;18.10
29093;DHT22;16167;48.768;14.984;2023-08-01T14:22:36;17.60;19.40
29093;DHT22;16167;48.768;14.984;2023-08-01T14:25:04;17.60;23.50
29093;DHT22;16167;48.768;14.984;2023-08-01T14:27:34;17.60;42.30
29093;DHT22;16167;48.768;14.984;2023-08-01T14:30:02;17.60;46.30
29093;DHT22;16167;48.768;14.984;2023-08-01T14:32:32;17.50;45.00
29093;DHT22;16167;48.768;14.984;2023-08-01T14:35:00;17.50;48.20
29093;DHT22;16167;48.768;14.984;2023-08-01T14:37:28;17.50;48.90
29093;DHT22;16167;48.768;14.984;2023-08-01T14:39:57;17.50;39.80
29093;DHT22;16167;48.768;14.984;2023-08-01T14:42:24;17.50;42.80
29093;DHT22;16167;48.768;14.984;2023-08-01T14:44:54;17.50;50.00
29093;DHT22;16167;48.768;14.984;2023-08-01T14:47:23;17.50;53.90
29093;DHT22;16167;48.768;14.984;2023-08-01T14:49:51;17.50;62.00
29093;DHT22;16167;48.768;14.984;2023-08-01T14:52:19;17.50;60.30
29093;DHT22;16167;48.768;14.984;2023-08-01T14:54:53;17.40;53.20
29093;DHT22;16167;48.768;14.984;2023-08-01T14:57:21;17.50;63.50
29093;DHT22;16167;48.768;14.984;2023-08-01T14:59:49;17.50;64.30
29093;DHT22;16167;48.768;14.984;2023-08-01T15:02:19;17.50;42.80
29093;DHT22;16167;48.768;14.984;2023-08-01T15:04:50;17.60;41.70
29093;DHT22;16167;48.768;14.984;2023-08-01T15:07:18;17.60;47.00
29093;DHT22;16167;48.768;14.984;2023-08-01T15:09:46;17.70;58.20
29093;DHT22;16167;48.768;14.984;2023-08-01T15:12:15;17.70;59.20
29093;DHT22;16167;48.768;14.984;2023-08-01T15:14:43;17.70;61.80
29093;DHT22;16167;48.768;14.984;2023-08-01T15:17:11;17.70;61.80
29093;DHT22;16167;48.768;14.984;2023-08-01T15:19:41;17.80;73.60
29093;DHT22;16167;48.768;14.984;2023-08-01T15:22:10;17.80;49.60
29093;DHT22;16167;48.768;14.984;2023-08-01T15:24:38;17.80;47.40
29093;DHT22;16167;48.768;14.984;2023-08-01T15:27:06;17.80;29.90
29093;DHT22;16167;48.768;14.984;2023-08-01T15:29:34;17.90;28.20
29093;DHT22;16167;48.768;14.984;2023-08-01T15:32:02;17.90;44.60
29093;DHT22;16167;48.768;14.984;2023-08-01T15:34:30;17.80;28.10
29093;DHT22;16167;48.768;14.984;2023-08-01T15:36:59;17.80;35.00